Time;durP1;ratioP1;P1;durP2;ratioP2;P2;SDS_P1;SDS_P2;PMS_P1;PMS_P2;Temp;Humidity;BMP_temperature;BMP_pressure;BME280_temperature;BME280_humidity;BME280_pressure;Samples;Min_cycle;Max_cycle;Signal;HPM_P1;HPM_P2
2021/12/06 00:01:46;;;;;;;4.20;2.13;;;;;;;-0.02;100.00;97944.84;5041345;28;20182;-57
2021/12/06 00:04:18;;;;;;;4.53;2.13;;;;;;;0.04;100.00;97941.03;5046709;28;20604;-57
2021/12/06 00:06:48;;;;;;;4.53;2.13;;;;;;;0.05;100.00;97940.09;5052163;28;20187;-58
2021/12/06 00:09:19;;;;;;;3.00;2.10;;;;;;;0.06;100.00;97949.44;5049465;28;20194;-56
2021/12/06 00:11:50;;;;;;;4.33;2.10;;;;;;;0.04;100.00;97943.59;5047864;28;20187;-57
2021/12/06 00:14:19;;;;;;;5.60;2.30;;;;;;;0.08;100.00;97950.16;5052418;28;20187;-57
2021/12/06 00:16:46;;;;;;;4.80;2.30;;;;;;;0.10;100.00;97955.22;5052834;28;20217;-57
2021/12/06 00:19:13;;;;;;;4.00;1.83;;;;;;;0.15;100.00;97958.31;5052572;28;20194;-57
2021/12/06 00:21:40;;;;;;;6.13;2.00;;;;;;;0.09;100.00;97953.56;5052311;28;20187;-57
2021/12/06 00:24:07;;;;;;;5.63;2.20;;;;;;;0.01;100.00;97946.38;5049046;28;20435;-57
2021/12/06 00:26:36;;;;;;;3.37;2.10;;;;;;;0.01;100.00;97950.69;5051137;28;20209;-57
2021/12/06 00:29:04;;;;;;;4.77;1.87;;;;;;;0.02;100.00;97954.91;5052930;28;20552;-56
2021/12/06 00:31:33;;;;;;;2.80;1.77;;;;;;;0.01;100.00;97961.75;5051807;28;20218;-57
2021/12/06 00:34:05;;;;;;;3.73;1.70;;;;;;;-0.05;100.00;97963.00;5050664;28;20201;-57
2021/12/06 00:36:33;;;;;;;5.43;1.77;;;;;;;-0.08;100.00;97958.06;5042383;28;20192;-57
2021/12/06 00:39:02;;;;;;;3.10;1.70;;;;;;;-0.14;100.00;97955.09;5050041;28;20695;-57
2021/12/06 00:41:29;;;;;;;3.23;1.53;;;;;;;-0.18;100.00;97967.28;5048133;28;20300;-58
2021/12/06 00:43:59;;;;;;;6.67;1.97;;;;;;;-0.19;100.00;97966.47;5051751;28;20216;-57
2021/12/06 00:46:27;;;;;;;5.60;1.90;;;;;;;-0.16;100.00;97973.13;5051930;28;20684;-58
2021/12/06 00:48:54;;;;;;;3.83;1.50;;;;;;;-0.10;100.00;97982.19;5051596;28;20187;-57
2021/12/06 00:51:21;;;;;;;2.97;1.73;;;;;;;0.00;100.00;97978.09;5049738;28;20290;-57
2021/12/06 00:53:49;;;;;;;3.37;1.97;;;;;;;-0.02;100.00;97980.75;5052200;28;20206;-58
2021/12/06 00:56:16;;;;;;;6.93;2.40;;;;;;;0.02;100.00;97983.13;5050072;28;20659;-57
2021/12/06 00:58:43;;;;;;;3.83;1.80;;;;;;;0.06;100.00;97989.69;5043815;28;20282;-57
2021/12/06 01:01:13;;;;;;;3.10;1.80;;;;;;;0.07;100.00;97981.88;5049890;28;20218;-57
2021/12/06 01:03:41;;;;;;;4.27;2.00;;;;;;;0.19;100.00;97990.53;5050210;28;20252;-57
2021/12/06 01:06:10;;;;;;;3.27;1.93;;;;;;;0.22;100.00;97994.63;5050674;28;20591;-57
2021/12/06 01:08:37;;;;;;;6.37;2.30;;;;;;;0.17;100.00;97988.97;5052009;28;20210;-57
2021/12/06 01:11:06;;;;;;;2.33;1.73;;;;;;;0.17;100.00;97994.13;5049363;28;20237;-54
2021/12/06 01:13:34;;;;;;;5.63;2.07;;;;;;;0.19;100.00;97999.97;5051108;28;20779;-57
2021/12/06 01:16:01;;;;;;;5.37;2.40;;;;;;;0.15;100.00;98007.06;5051194;28;20244;-57
2021/12/06 01:18:30;;;;;;;4.97;2.20;;;;;;;0.08;100.00;98005.81;5049929;28;20190;-57
2021/12/06 01:21:05;;;;;;;4.50;2.00;;;;;;;0.04;100.00;98012.88;5049064;28;20262;-56
2021/12/06 01:23:45;;;;;;;4.80;2.30;;;;;;;0.12;100.00;98015.78;5047375;28;20681;-57
2021/12/06 01:26:32;;;;;;;4.60;1.90;;;;;;;0.09;100.00;98028.81;5050142;28;20771;-57
2021/12/06 01:29:35;;;;;;;5.70;2.10;;;;;;;0.10;100.00;98035.59;5045793;28;20201;-56
2021/12/06 01:32:12;;;;;;;2.43;1.70;;;;;;;0.18;100.00;98041.97;5055844;28;20201;-54
2021/12/06 01:40:19;;;;;;;3.47;1.97;;;;;;;0.34;100.00;98049.50;4957969;28;20290;-57
2021/12/06 01:42:46;;;;;;;2.40;1.57;;;;;;;0.26;100.00;98050.81;5030223;28;20195;-57
2021/12/06 01:45:13;;;;;;;3.10;1.83;;;;;;;0.25;100.00;98049.19;5041713;28;20203;-57
2021/12/06 01:47:42;;;;;;;3.53;1.60;;;;;;;0.24;100.00;98056.97;5048787;28;20190;-57
2021/12/06 01:50:19;;;;;;;4.97;1.67;;;;;;;0.19;100.00;98061.56;5048931;28;20215;-57
2021/12/06 01:52:50;;;;;;;3.87;2.23;;;;;;;0.16;100.00;98065.19;5042525;28;20685;-57
2021/12/06 01:55:22;;;;;;;4.47;2.10;;;;;;;0.16;100.00;98061.78;5049423;28;20556;-57
2021/12/06 01:57:50;;;;;;;3.10;1.63;;;;;;;0.16;100.00;98072.03;5049593;28;20199;-57
2021/12/06 02:00:22;;;;;;;5.83;1.87;;;;;;;0.18;100.00;98081.31;5049043;28;20687;-56
2021/12/06 02:02:54;;;;;;;3.23;1.50;;;;;;;0.23;100.00;98075.84;5045189;28;20210;-57
2021/12/06 02:05:30;;;;;;;4.10;1.90;;;;;;;0.30;100.00;98079.69;5047904;28;20208;-57
2021/12/06 02:07:59;;;;;;;3.63;1.80;;;;;;;0.34;100.00;98083.69;5049266;28;20661;-57
2021/12/06 02:10:27;;;;;;;3.53;1.67;;;;;;;0.43;100.00;98084.84;5050469;28;20554;-57
2021/12/06 02:12:55;;;;;;;5.07;2.10;;;;;;;0.45;100.00;98088.16;5049855;28;20184;-56
2021/12/06 02:15:35;;;;;;;4.07;2.10;;;;;;;0.45;100.00;98085.56;5050630;28;20191;-56
2021/12/06 02:18:09;;;;;;;2.10;1.50;;;;;;;0.40;100.00;98091.00;5046991;28;20199;-57
2021/12/06 02:20:45;;;;;;;8.73;1.93;;;;;;;0.44;100.00;98091.63;5044505;28;20232;-56
2021/12/06 02:23:14;;;;;;;2.07;1.53;;;;;;;0.47;100.00;98085.47;5042853;28;20682;-56
2021/12/06 02:25:41;;;;;;;2.70;1.93;;;;;;;0.47;100.00;98085.47;5041301;28;20203;-56
2021/12/06 02:28:08;;;;;;;4.57;2.00;;;;;;;0.49;100.00;98091.31;5038657;28;20191;-57
2021/12/06 02:30:35;;;;;;;3.30;2.07;;;;;;;0.49;100.00;98083.63;5040613;28;20717;-56
2021/12/06 02:33:02;;;;;;;3.93;2.50;;;;;;;0.54;100.00;98091.84;5039843;28;20214;-57
2021/12/06 02:35:31;;;;;;;5.57;2.60;;;;;;;0.57;100.00;98094.22;5043442;28;20200;-56
2021/12/06 02:38:02;;;;;;;4.87;2.50;;;;;;;0.51;100.00;98094.63;5047019;28;20207;-56
2021/12/06 02:40:33;;;;;;;3.43;2.50;;;;;;;0.53;100.00;98100.47;5040455;28;20215;-57
2021/12/06 02:43:05;;;;;;;6.30;2.90;;;;;;;0.57;100.00;98095.03;5049430;28;20203;-56
2021/12/06 02:45:32;;;;;;;3.80;2.40;;;;;;;0.64;100.00;98100.59;5046571;28;20285;-56
2021/12/06 02:48:02;;;;;;;3.97;2.20;;;;;;;0.67;100.00;98100.41;5040966;28;20202;-56
2021/12/06 02:50:37;;;;;;;4.20;2.57;;;;;;;0.72;100.00;98106.06;5044172;28;20218;-57
2021/12/06 02:53:05;;;;;;;4.20;2.43;;;;;;;0.67;100.00;98105.53;5046093;28;20850;-56
2021/12/06 02:55:35;;;;;;;4.60;2.60;;;;;;;0.68;100.00;98111.47;5047532;28;20184;-56
2021/12/06 02:58:14;;;;;;;3.93;2.47;;;;;;;0.67;100.00;98122.66;5048874;28;20199;-56
2021/12/06 03:00:44;;;;;;;3.40;2.00;;;;;;;0.67;100.00;98118.38;5039433;28;20680;-56
2021/12/06 03:03:11;;;;;;;4.17;2.30;;;;;;;0.67;100.00;98118.38;5045249;28;20192;-55
2021/12/06 03:05:38;;;;;;;3.10;2.13;;;;;;;0.68;100.00;98119.19;5043185;28;20212;-56
2021/12/06 03:08:06;;;;;;;4.07;2.10;;;;;;;0.65;100.00;98121.94;5051146;28;20573;-56
2021/12/06 03:10:35;;;;;;;3.43;2.53;;;;;;;0.59;100.00;98111.16;5046426;28;20225;-56
2021/12/06 03:13:02;;;;;;;4.20;2.40;;;;;;;0.44;100.00;98112.97;5049720;28;20188;-55
2021/12/06 03:15:30;;;;;;;6.77;2.47;;;;;;;0.34;100.00;98111.94;5044988;28;20188;-56
2021/12/06 03:17:58;;;;;;;4.30;2.30;;;;;;;0.22;100.00;98123.81;5044528;28;20188;-54
2021/12/06 03:20:26;;;;;;;3.30;2.00;;;;;;;0.16;100.00;98121.66;5043477;28;20206;-56
2021/12/06 03:22:53;;;;;;;4.03;2.40;;;;;;;0.13;100.00;98132.91;5049915;28;20192;-54
2021/12/06 03:25:20;;;;;;;5.20;2.50;;;;;;;0.06;100.00;98136.78;5043646;28;20210;-54
2021/12/06 03:27:49;;;;;;;3.40;2.50;;;;;;;0.01;100.00;98138.00;5065206;28;20191;-56
2021/12/06 03:30:16;;;;;;;3.87;2.20;;;;;;;0.08;100.00;98150.34;5045598;28;20567;-54
2021/12/06 03:32:43;;;;;;;7.87;2.50;;;;;;;0.08;100.00;98154.66;5042155;28;20556;-55
2021/12/06 03:35:13;;;;;;;3.90;2.13;;;;;;;0.06;100.00;98144.47;5043274;28;20179;-56
2021/12/06 03:37:41;;;;;;;4.70;2.33;;;;;;;0.08;100.00;98150.34;5041473;28;20201;-56
2021/12/06 03:40:08;;;;;;;3.30;2.00;;;;;;;0.14;100.00;98156.84;5041499;28;20226;-56
2021/12/06 03:42:38;;;;;;;3.97;2.23;;;;;;;0.19;100.00;98156.53;5046254;28;20293;-52
2021/12/06 03:45:08;;;;;;;3.90;1.87;;;;;;;0.18;100.00;98163.44;5050354;28;20281;-55
2021/12/06 03:47:37;;;;;;;7.63;2.40;;;;;;;0.20;100.00;98158.19;5045063;28;20194;-53
2021/12/06 03:50:05;;;;;;;7.30;4.20;;;;;;;0.21;100.00;98165.81;5039943;28;20213;-56
2021/12/06 03:52:32;;;;;;;8.03;4.23;;;;;;;0.21;100.00;98163.25;5043360;28;20194;-55
2021/12/06 03:55:03;;;;;;;12.17;5.47;;;;;;;0.21;100.00;98157.28;5041197;28;20188;-56
2021/12/06 03:57:29;;;;;;;10.43;5.47;;;;;;;0.19;100.00;98162.50;5042533;28;20198;-54
2021/12/06 03:59:58;;;;;;;8.73;5.30;;;;;;;0.18;100.00;98163.44;5047549;28;20234;-56
2021/12/06 04:02:29;;;;;;;10.80;4.50;;;;;;;0.14;100.00;98167.91;5044420;28;20202;-52
2021/12/06 04:04:56;;;;;;;7.00;4.40;;;;;;;0.17;100.00;98168.66;5041845;28;20703;-56
2021/12/06 04:07:27;;;;;;;8.67;4.20;;;;;;;0.20;100.00;98177.00;5040427;28;20211;-56
2021/12/06 04:09:54;;;;;;;11.83;4.67;;;;;;;0.19;100.00;98180.47;5040970;28;20294;-53
2021/12/06 04:12:21;;;;;;;7.67;4.23;;;;;;;0.20;100.00;98173.59;5040735;28;20188;-56
2021/12/06 04:14:51;;;;;;;4.73;2.63;;;;;;;0.25;100.00;98180.09;5043304;28;20741;-55
2021/12/06 04:17:19;;;;;;;7.60;2.67;;;;;;;0.29;100.00;98180.72;5064842;28;20191;-55
2021/12/06 04:19:48;;;;;;;4.13;2.40;;;;;;;0.29;100.00;98184.13;5044457;28;20222;-55
2021/12/06 04:22:16;;;;;;;5.80;3.00;;;;;;;0.29;100.00;98184.13;5040070;28;20241;-55
2021/12/06 04:24:44;;;;;;;6.50;3.60;;;;;;;0.29;100.00;98185.84;5042210;28;20447;-56
2021/12/06 04:27:15;;;;;;;5.40;3.83;;;;;;;0.28;100.00;98197.03;5052314;28;20214;-53
2021/12/06 04:29:46;;;;;;;6.87;3.53;;;;;;;0.28;100.00;98194.47;5050959;28;20746;-55
2021/12/06 04:32:16;;;;;;;7.43;3.40;;;;;;;0.33;100.00;98207.03;5064486;28;20192;-54
2021/12/06 04:34:44;;;;;;;6.80;3.30;;;;;;;0.35;100.00;98211.13;5064688;28;20189;-56
2021/12/06 04:37:13;;;;;;;5.40;2.40;;;;;;;0.40;100.00;98216.00;5051701;28;20282;-57
2021/12/06 04:39:41;;;;;;;4.60;3.07;;;;;;;0.47;100.00;98212.13;5051399;28;20242;-56
2021/12/06 04:42:09;;;;;;;7.70;3.10;;;;;;;0.51;100.00;98225.59;5051747;28;20195;-56
2021/12/06 04:44:36;;;;;;;5.97;3.00;;;;;;;0.50;100.00;98235.06;5051645;28;20198;-53
2021/12/06 04:47:06;;;;;;;29.63;8.07;;;;;;;0.53;100.00;98239.16;5049873;28;20227;-55
2021/12/06 04:49:34;;;;;;;17.90;9.53;;;;;;;0.42;100.00;98242.41;5047764;28;20230;-56
2021/12/06 04:52:07;;;;;;;11.90;7.40;;;;;;;0.43;100.00;98246.63;5050700;28;20195;-56
2021/12/06 04:54:40;;;;;;;16.93;8.87;;;;;;;0.47;100.00;98242.94;5051482;28;20195;-54
2021/12/06 04:57:12;;;;;;;13.17;7.50;;;;;;;0.45;100.00;98252.50;5051634;28;20199;-53
2021/12/06 04:59:42;;;;;;;11.40;7.20;;;;;;;0.44;100.00;98255.97;5050788;28;20738;-56
2021/12/06 05:02:15;;;;;;;13.80;7.47;;;;;;;0.44;100.00;98259.34;5051393;28;20198;-55
2021/12/06 05:04:47;;;;;;;13.13;6.73;;;;;;;0.47;100.00;98276.34;5051553;28;20202;-55
2021/12/06 05:07:21;;;;;;;11.00;7.13;;;;;;;0.55;100.00;98283.53;5047127;28;20403;-54
2021/12/06 05:09:50;;;;;;;11.10;6.63;;;;;;;0.56;100.00;98280.88;5048833;28;20229;-54
2021/12/06 05:12:24;;;;;;;10.83;6.20;;;;;;;0.61;100.00;98282.31;5051314;28;20664;-53
2021/12/06 05:14:52;;;;;;;19.80;9.80;;;;;;;0.64;100.00;98287.25;5051224;28;20223;-54
2021/12/06 05:17:19;;;;;;;9.00;5.40;;;;;;;0.64;100.00;98277.00;5051395;28;20179;-55
2021/12/06 05:19:46;;;;;;;9.37;6.10;;;;;;;0.64;100.00;98280.41;5050451;28;20227;-55
2021/12/06 05:22:14;;;;;;;10.97;5.97;;;;;;;0.73;100.00;98284.97;5050081;28;20218;-52
2021/12/06 05:24:42;;;;;;;10.05;6.00;;;;;;;0.87;100.00;98291.78;5039993;28;20443;-55
2021/12/06 05:27:10;;;;;;;10.50;5.00;;;;;;;0.85;100.00;98292.81;5050779;28;20253;-54
2021/12/06 05:29:44;;;;;;;8.50;4.73;;;;;;;0.87;100.00;98301.25;5050041;28;20298;-54
2021/12/06 05:32:12;;;;;;;17.27;10.40;;;;;;;0.87;100.00;98301.25;5052216;28;20195;-55
2021/12/06 05:34:43;;;;;;;22.40;10.80;;;;;;;0.85;100.00;98308.22;5050959;28;20195;-56
2021/12/06 05:37:12;;;;;;;22.87;11.63;;;;;;;0.85;100.00;98303.09;5052171;28;20740;-55
2021/12/06 05:39:39;;;;;;;23.60;11.90;;;;;;;0.83;100.00;98313.47;5049448;28;20612;-56
2021/12/06 05:42:12;;;;;;;21.23;10.43;;;;;;;0.87;100.00;98311.53;5049557;28;20202;-53
2021/12/06 05:44:40;;;;;;;20.83;10.70;;;;;;;0.85;100.00;98323.66;5051382;28;20187;-54
2021/12/06 05:47:08;;;;;;;16.73;9.57;;;;;;;0.87;100.00;98321.81;5051823;28;20215;-56
2021/12/06 05:49:36;;;;;;;16.73;9.80;;;;;;;0.87;100.00;98321.81;5049783;28;20233;-56
2021/12/06 05:52:04;;;;;;;25.10;14.07;;;;;;;0.87;100.00;98324.38;5051910;28;20209;-57
2021/12/06 05:54:31;;;;;;;16.27;9.67;;;;;;;0.91;100.00;98327.56;5051871;28;20209;-56
2021/12/06 05:56:58;;;;;;;12.17;8.03;;;;;;;0.91;100.00;98341.25;5050399;28;20668;-57
2021/12/06 05:59:27;;;;;;;11.57;7.80;;;;;;;0.85;100.00;98336.50;5048736;28;20663;-57
2021/12/06 06:01:54;;;;;;;11.83;7.53;;;;;;;0.88;99.93;98341.44;5050906;28;20667;-56
2021/12/06 06:04:22;;;;;;;11.47;7.20;;;;;;;0.80;99.89;98352.19;5051749;28;20842;-54
2021/12/06 06:06:49;;;;;;;10.47;6.70;;;;;;;0.77;100.00;98351.56;5050506;28;20257;-57
2021/12/06 06:09:17;;;;;;;12.00;7.50;;;;;;;0.77;100.00;98364.41;5051622;28;20186;-57
2021/12/06 06:11:44;;;;;;;12.20;7.70;;;;;;;0.81;100.00;98368.44;5051060;28;20648;-57
2021/12/06 06:14:11;;;;;;;10.63;7.10;;;;;;;0.82;100.00;98368.34;5051222;28;20194;-57
2021/12/06 06:16:47;;;;;;;11.60;8.10;;;;;;;0.85;100.00;98375.84;5051482;28;20187;-56
2021/12/06 06:19:14;;;;;;;15.83;10.30;;;;;;;0.88;100.00;98378.25;5051370;28;20529;-53
2021/12/06 06:21:41;;;;;;;14.97;9.67;;;;;;;0.91;100.00;98376.41;5050659;28;20657;-55
2021/12/06 06:24:08;;;;;;;14.80;10.10;;;;;;;0.95;99.99;98388.13;5051351;28;20183;-56
2021/12/06 06:26:35;;;;;;;15.43;10.40;;;;;;;0.94;99.75;98384.75;5051504;28;20675;-56
2021/12/06 06:29:02;;;;;;;17.83;10.60;;;;;;;0.91;99.88;98389.25;5050996;28;20191;-56
2021/12/06 06:31:28;;;;;;;17.10;10.03;;;;;;;0.89;99.93;98399.63;5050520;28;20216;-56
2021/12/06 06:33:57;;;;;;;16.47;9.87;;;;;;;0.91;99.91;98402.94;5051432;28;20676;-57
2021/12/06 06:36:24;;;;;;;14.57;9.23;;;;;;;0.92;99.68;98401.19;5052965;28;20191;-57
2021/12/06 06:38:51;;;;;;;15.63;9.13;;;;;;;0.87;99.51;98409.19;5055330;28;20190;-56
2021/12/06 06:41:18;;;;;;;16.33;9.50;;;;;;;0.95;98.91;98409.53;5054560;28;20225;-57
2021/12/06 06:43:44;;;;;;;17.17;10.77;;;;;;;0.93;98.28;98415.69;5054860;28;20188;-56
2021/12/06 06:46:11;;;;;;;20.50;11.20;;;;;;;0.95;98.19;98424.13;5051219;28;20196;-57
2021/12/06 06:48:38;;;;;;;21.40;11.83;;;;;;;0.86;98.73;98425.53;5053409;28;20191;-57
2021/12/06 06:51:06;;;;;;;16.77;11.97;;;;;;;0.86;99.75;98420.38;5054512;28;20211;-57
2021/12/06 06:53:33;;;;;;;19.30;11.97;;;;;;;0.88;100.00;98427.06;5055167;28;20521;-57
2021/12/06 06:56:00;;;;;;;21.77;12.30;;;;;;;0.93;100.00;98425.94;5055139;28;20821;-56
2021/12/06 06:58:27;;;;;;;19.80;12.07;;;;;;;0.97;100.00;98433.41;5055107;28;20202;-57
2021/12/06 07:00:54;;;;;;;23.97;13.37;;;;;;;0.96;100.00;98436.03;5053551;28;20531;-57
2021/12/06 07:03:21;;;;;;;20.00;12.47;;;;;;;1.03;100.00;98438.16;5054877;28;20678;-56
2021/12/06 07:05:48;;;;;;;22.33;12.43;;;;;;;1.08;100.00;98444.72;5054920;28;20194;-57
2021/12/06 07:08:16;;;;;;;22.87;14.40;;;;;;;1.09;100.00;98444.66;5054610;28;20200;-57
2021/12/06 07:10:45;;;;;;;19.03;12.37;;;;;;;1.13;100.00;98448.69;5053891;28;20207;-57
2021/12/06 07:13:14;;;;;;;19.47;12.50;;;;;;;1.15;99.76;98453.72;5054795;28;20183;-57
2021/12/06 07:15:41;;;;;;;17.37;10.67;;;;;;;1.18;99.92;98461.25;5053966;28;20249;-57
2021/12/06 07:18:07;;;;;;;14.27;9.77;;;;;;;1.22;100.00;98464.47;5054724;28;20269;-57
2021/12/06 07:20:35;;;;;;;13.43;9.63;;;;;;;1.27;100.00;98467.56;5053807;28;20211;-54
2021/12/06 07:23:03;;;;;;;14.60;9.50;;;;;;;1.29;99.76;98468.31;5054281;28;20652;-57
2021/12/06 07:25:31;;;;;;;14.90;9.98;;;;;;;1.33;100.00;98472.34;5053690;28;20450;-56
2021/12/06 07:28:00;;;;;;;12.10;8.53;;;;;;;1.34;100.00;98466.28;5054633;28;20222;-57
2021/12/06 07:30:27;;;;;;;11.20;7.97;;;;;;;1.42;100.00;98469.19;5052907;28;20211;-57
2021/12/06 07:32:55;;;;;;;8.83;5.77;;;;;;;1.43;99.86;98465.69;5054559;28;20187;-57
2021/12/06 07:35:23;;;;;;;13.17;7.20;;;;;;;1.47;99.41;98469.72;5054227;28;20219;-56
2021/12/06 07:37:50;;;;;;;11.87;6.00;;;;;;;1.51;99.35;98474.69;5054303;28;20183;-56
2021/12/06 07:40:18;;;;;;;10.70;6.00;;;;;;;1.53;98.77;98481.34;5053504;28;20206;-56
2021/12/06 07:42:46;;;;;;;8.77;4.80;;;;;;;1.57;98.47;98484.59;5053079;28;20218;-56
2021/12/06 07:45:14;;;;;;;7.77;4.20;;;;;;;1.56;98.26;98488.88;5053648;28;20191;-57
2021/12/06 07:47:41;;;;;;;8.80;5.33;;;;;;;1.62;98.68;98487.66;5052203;28;20443;-57
2021/12/06 07:50:12;;;;;;;7.30;4.80;;;;;;;1.66;98.41;98493.44;5053282;28;20450;-57
2021/12/06 07:52:41;;;;;;;6.77;4.53;;;;;;;1.76;98.36;98497.91;5054124;28;20198;-57
2021/12/06 07:55:10;;;;;;;7.60;4.38;;;;;;;1.84;97.94;98505.16;5053280;28;20980;-56
2021/12/06 07:57:38;;;;;;;7.77;4.67;;;;;;;1.89;97.69;98503.09;5053967;28;20645;-56
2021/12/06 08:00:09;;;;;;;5.67;3.80;;;;;;;1.93;96.93;98506.28;5052389;28;20218;-57
2021/12/06 08:02:36;;;;;;;6.70;3.93;;;;;;;2.03;95.69;98509.94;5053815;28;20275;-57
2021/12/06 08:07:46;;;;;;;6.03;3.50;;;;;;;2.04;95.60;98505.63;5046030;28;20584;-57
2021/12/06 08:10:14;;;;;;;5.57;3.10;;;;;;;2.01;95.47;98503.25;5053142;28;20261;-58
2021/12/06 08:12:40;;;;;;;6.87;3.30;;;;;;;2.13;95.17;98505.00;5053899;28;20183;-55
2021/12/06 08:15:10;;;;;;;6.43;3.53;;;;;;;2.12;95.05;98505.09;5053028;28;20194;-57
2021/12/06 08:17:38;;;;;;;7.00;4.70;;;;;;;2.21;94.32;98510.47;5053487;28;20218;-56
2021/12/06 08:20:08;;;;;;;8.67;4.67;;;;;;;2.29;93.71;98509.97;5053053;28;20608;-57
2021/12/06 08:22:35;;;;;;;4.20;2.73;;;;;;;2.41;92.50;98510.91;5053521;28;20576;-56
2021/12/06 08:25:02;;;;;;;6.87;2.77;;;;;;;2.43;92.84;98513.41;5053501;28;20262;-56
2021/12/06 08:27:29;;;;;;;5.70;2.90;;;;;;;2.43;92.80;98519.34;5053472;28;20253;-56
2021/12/06 08:29:56;;;;;;;4.63;2.97;;;;;;;2.50;92.27;98523.19;5051786;28;20312;-57
2021/12/06 08:32:24;;;;;;;5.80;2.80;;;;;;;2.56;93.07;98532.28;5053237;28;20317;-56
2021/12/06 08:34:51;;;;;;;6.23;4.27;;;;;;;2.62;91.68;98528.44;5053298;28;20194;-57
2021/12/06 08:37:18;;;;;;;4.30;3.43;;;;;;;2.61;91.87;98526.78;5053320;28;20297;-55
2021/12/06 08:39:45;;;;;;;5.23;3.00;;;;;;;2.64;92.59;98535.16;5051129;28;20254;-56
2021/12/06 08:42:11;;;;;;;4.87;3.83;;;;;;;2.74;93.31;98537.09;5053417;28;20214;-56
2021/12/06 08:44:38;;;;;;;6.23;4.50;;;;;;;2.83;93.79;98538.25;5052443;28;20565;-55
2021/12/06 08:47:05;;;;;;;10.57;5.83;;;;;;;2.91;93.52;98526.47;5052938;28;20250;-55
2021/12/06 08:49:36;;;;;;;15.53;10.60;;;;;;;2.95;94.27;98535.66;5052889;28;20187;-56
2021/12/06 08:52:04;;;;;;;16.87;9.57;;;;;;;3.07;92.57;98531.44;5052981;28;20211;-55
2021/12/06 08:54:31;;;;;;;13.30;8.67;;;;;;;3.09;91.19;98545.03;5052623;28;20517;-56
2021/12/06 08:57:01;;;;;;;14.27;9.10;;;;;;;2.99;89.27;98544.00;5052938;28;20188;-57
2021/12/06 08:59:29;;;;;;;14.43;9.17;;;;;;;2.96;90.44;98541.66;5051435;28;20196;-57
2021/12/06 09:01:57;;;;;;;15.43;8.60;;;;;;;2.92;90.41;98546.16;5051844;28;20195;-57
2021/12/06 09:04:28;;;;;;;13.93;8.90;;;;;;;2.88;90.46;98544.72;5052774;28;20191;-58
2021/12/06 09:06:58;;;;;;;15.63;10.20;;;;;;;2.88;90.67;98539.56;5051471;28;20244;-57
2021/12/06 09:09:27;;;;;;;13.80;8.00;;;;;;;2.92;90.40;98537.63;5052676;28;20222;-58
2021/12/06 09:11:54;;;;;;;15.07;8.33;;;;;;;2.83;89.66;98539.06;5052055;28;20195;-58
2021/12/06 09:14:22;;;;;;;17.10;8.80;;;;;;;2.83;89.07;98539.06;5052288;28;20187;-57
2021/12/06 09:16:50;;;;;;;15.03;7.93;;;;;;;2.89;90.04;98533.47;5052374;28;20275;-58
2021/12/06 09:19:18;;;;;;;13.80;8.73;;;;;;;2.89;88.20;98538.63;5052174;28;20282;-58
2021/12/06 09:21:46;;;;;;;13.03;7.30;;;;;;;2.88;88.32;98549.06;5051907;28;20743;-58
2021/12/06 09:24:17;;;;;;;15.53;9.03;;;;;;;2.89;88.38;98540.41;5052468;28;20175;-54
2021/12/06 09:26:45;;;;;;;17.53;10.40;;;;;;;3.01;89.13;98539.59;5052479;28;20229;-57
2021/12/06 09:29:12;;;;;;;15.73;8.93;;;;;;;3.07;87.68;98543.47;5051619;28;20294;-57
2021/12/06 09:31:39;;;;;;;13.10;8.27;;;;;;;3.11;87.39;98539.75;5051214;28;20219;-58
2021/12/06 09:34:06;;;;;;;13.47;8.17;;;;;;;3.19;85.96;98542.63;5052088;28;20270;-58
2021/12/06 09:36:34;;;;;;;14.63;10.37;;;;;;;3.30;85.04;98541.88;5052308;28;20761;-57
2021/12/06 09:39:01;;;;;;;23.30;15.73;;;;;;;3.36;86.39;98538.88;5052167;28;20177;-57
2021/12/06 09:41:29;;;;;;;17.73;10.10;;;;;;;3.39;86.85;98540.44;5050061;28;20584;-58
2021/12/06 09:44:00;;;;;;;20.33;10.63;;;;;;;3.49;86.59;98540.59;5051547;28;20279;-57
2021/12/06 09:46:28;;;;;;;17.63;10.37;;;;;;;3.50;86.43;98544.84;5051770;28;20648;-58
2021/12/06 09:48:56;;;;;;;15.73;10.43;;;;;;;3.42;83.94;98552.28;5051645;28;20608;-57
2021/12/06 09:51:25;;;;;;;18.50;10.30;;;;;;;3.52;85.63;98556.72;5051213;28;20203;-55
2021/12/06 09:53:54;;;;;;;15.83;9.23;;;;;;;3.62;85.56;98569.78;5052362;28;20525;-58
2021/12/06 09:56:24;;;;;;;14.87;8.90;;;;;;;3.63;83.83;98575.78;5050817;28;20349;-57
2021/12/06 09:58:54;;;;;;;15.23;8.60;;;;;;;3.65;83.10;98577.31;5051359;28;20218;-58
2021/12/06 10:01:24;;;;;;;16.50;9.23;;;;;;;3.58;84.08;98583.03;5048161;28;20692;-56
2021/12/06 10:03:53;;;;;;;16.30;11.17;;;;;;;3.60;85.06;98581.97;5051937;28;20253;-58
2021/12/06 10:06:22;;;;;;;15.60;9.50;;;;;;;3.58;85.44;98575.28;5052077;28;20545;-57
2021/12/06 10:08:51;;;;;;;11.70;7.70;;;;;;;3.59;85.78;98575.16;5051672;28;20206;-58
2021/12/06 10:11:20;;;;;;;10.80;7.93;;;;;;;3.57;84.95;98576.22;5048232;28;20209;-56
2021/12/06 10:13:48;;;;;;;13.17;8.07;;;;;;;3.52;84.40;98577.34;5040410;28;20180;-57
2021/12/06 10:16:19;;;;;;;17.80;8.43;;;;;;;3.44;84.29;98579.66;5047404;28;20715;-56
2021/12/06 10:18:46;;;;;;;15.07;8.77;;;;;;;3.29;85.53;98575.53;5046194;28;20199;-57
2021/12/06 10:21:13;;;;;;;12.70;8.53;;;;;;;3.38;86.84;98567.16;5041884;28;20580;-56
2021/12/06 10:23:42;;;;;;;11.90;7.80;;;;;;;3.45;87.49;98567.56;5040387;28;20277;-57
2021/12/06 10:26:10;;;;;;;14.97;8.07;;;;;;;3.49;85.11;98559.50;5040716;28;20195;-55
2021/12/06 10:28:39;;;;;;;13.47;8.33;;;;;;;3.52;85.42;98561.03;5041983;28;20294;-57
2021/12/06 10:31:08;;;;;;;15.43;8.40;;;;;;;3.50;86.02;98562.91;5042861;28;20585;-57
2021/12/06 10:33:40;;;;;;;12.07;8.00;;;;;;;3.75;85.50;98563.75;5049864;28;20297;-57
2021/12/06 10:36:09;;;;;;;97.43;59.40;;;;;;;3.71;83.40;98554.56;5043689;28;20214;-57
2021/12/06 10:38:38;;;;;;;23.20;11.13;;;;;;;3.88;83.94;98561.94;5041985;28;20535;-56
2021/12/06 10:41:09;;;;;;;22.13;10.03;;;;;;;3.79;84.53;98565.19;5040198;28;20269;-56
2021/12/06 10:43:37;;;;;;;15.57;9.07;;;;;;;3.90;84.56;98564.41;5040166;28;20188;-57
2021/12/06 10:46:06;;;;;;;14.70;8.47;;;;;;;4.01;84.50;98559.31;5041146;28;20794;-57
2021/12/06 10:48:35;;;;;;;17.70;10.40;;;;;;;4.00;83.63;98565.41;5048839;28;20386;-57
2021/12/06 10:51:05;;;;;;;18.10;10.17;;;;;;;4.06;83.64;98564.16;5034626;28;20290;-57
2021/12/06 10:53:38;;;;;;;19.17;10.03;;;;;;;3.99;83.07;98559.44;5046798;28;20195;-59
2021/12/06 10:56:14;;;;;;;17.67;11.17;;;;;;;4.03;82.63;98560.00;5036464;28;20199;-59
2021/12/06 10:58:41;;;;;;;20.83;13.67;;;;;;;3.88;83.96;98554.22;5050859;28;20191;-59
2021/12/06 11:01:10;;;;;;;19.87;16.17;;;;;;;3.81;84.30;98558.16;5050422;28;20243;-59
2021/12/06 11:03:42;;;;;;;18.37;11.10;;;;;;;3.88;85.39;98551.63;5047867;28;20286;-58
2021/12/06 11:06:15;;;;;;;23.30;12.60;;;;;;;3.97;84.74;98550.97;5051017;28;20191;-59
2021/12/06 11:08:43;;;;;;;18.10;11.00;;;;;;;3.96;85.12;98553.66;5031057;28;20330;-58
2021/12/06 11:11:15;;;;;;;27.00;16.23;;;;;;;4.08;85.04;98563.09;5041908;22;20228;-58
2021/12/06 11:13:46;;;;;;;20.40;11.70;;;;;;;4.06;84.88;98557.22;5024609;28;20235;-58
2021/12/06 11:16:16;;;;;;;21.60;13.13;;;;;;;4.10;84.16;98555.25;5031623;28;20275;-57
2021/12/06 11:18:48;;;;;;;23.50;15.17;;;;;;;4.25;83.75;98558.47;5069280;22;20299;-58
2021/12/06 11:21:36;;;;;;;36.67;21.10;;;;;;;4.25;83.18;98550.72;5067460;28;20206;-57
2021/12/06 11:24:25;;;;;;;17.90;11.90;;;;;;;4.42;81.01;98539.97;5066208;28;20191;-56
2021/12/06 11:26:57;;;;;;;17.30;10.00;;;;;;;4.47;79.92;98531.84;5073712;28;20218;-56
2021/12/06 11:29:28;;;;;;;19.63;12.07;;;;;;;4.57;81.60;98530.22;5073700;28;20295;-57
2021/12/06 11:31:59;;;;;;;13.43;8.30;;;;;;;4.64;79.88;98524.59;5070954;28;20562;-58
2021/12/06 11:34:31;;;;;;;17.27;10.77;;;;;;;4.83;80.72;98517.09;5070937;28;20671;-57
2021/12/06 11:37:03;;;;;;;11.80;7.97;;;;;;;4.82;77.95;98522.38;5073627;28;20229;-56
2021/12/06 11:39:31;;;;;;;13.10;8.50;;;;;;;4.75;77.53;98513.47;5064952;28;20194;-57
2021/12/06 11:41:59;;;;;;;12.17;7.60;;;;;;;4.76;78.17;98521.09;5072941;28;20683;-57
2021/12/06 11:44:30;;;;;;;11.13;7.53;;;;;;;4.70;77.89;98524.97;5071094;28;20663;-57
2021/12/06 11:47:04;;;;;;;12.90;9.33;;;;;;;4.70;79.50;98524.97;5072704;28;20183;-58
2021/12/06 11:49:35;;;;;;;16.07;9.70;;;;;;;4.78;79.96;98521.78;5071186;28;20253;-57